Kezdőlap
METAR-TAF:

METAR-TAF

Repülőterek :

Upington, Dél-afrikai Köztársaság

földrajzi szélesség: 28-24S, földrajzi hosszúság: 021-16E, magasság: 839 m

Jelenlegi meteorológiai megfigyelések

A jelentés 1 órával és 4 perccel ezelõtt készült, 01:00 UTC
Délkeleti szél 2 kt
Hőmérséklet 6°C
Páratartalom 36%
Légköri nyomás 1023 hPa
Látótávolság 10 km, vagy több
felhőtlen 1500 m magasságban, és nincs gomolyfelhõ

METAR: FAUP 230100Z 14002KT CAVOK 06/M08 Q1023 NOSIG

Idő: 04:04 (02:04 UTC)

Előrejelzés

A jelentés 4 órával és 4 perccel ezelõtt készült, 22:00 UTC
Az előrejelzés 23-én 00 óra UTC és 23-én 24 óra UTC között érvényes
Különbözõ irányokból fújó szél 3 kt
Látótávolság 10 km, vagy több
felhőtlen 1500 m magasságban, és nincs gomolyfelhõ
23-én 12 óra UTC és 23-én 14 óra UTC között fokozatosan kialakuló
Nyugati szél 10 kt

TAF: FAUP 222200Z 2300/2324 VRB03KT CAVOK TX25/2312Z TN02/2304Z BECMG 2312/2314 26010KT

Meteorológiai megfigyelések és előrejelzések több, mint 4000 repülőtéren (METAR és TAF jelentéseket).

A térképen piros és sárga pontok jelzik az elérhető meteorológiai állomásokat.

Mozgassa az egeret a pont fölött, hogy megjelenjen az állomás neve.

Azután kattintson az időjárási megfigyelések és előrejelzések megtekintéséhez.

A térkép megváltoztatása: kattintson a fekete keresztel jelölt zöld gombra ráközelítéshez, a vonallal jelölt zöld gombra távolításhoz, vagy a zöld nyilakra a szomszédos térképek eléréséhez.


METAR-TAF: